Time;durP1;ratioP1;P1;durP2;ratioP2;P2;SDS_P1;SDS_P2;PMS_P1;PMS_P2;Temp;Humidity;BMP_temperature;BMP_pressure;BME280_temperature;BME280_humidity;BME280_pressure;Samples;Min_cycle;Max_cycle;Signal;HPM_P1;HPM_P2
2022/11/24 00:01:48;;;;;;;0.40;0.40;;;0.00;99.90;;;;;;5176240;27;20389;-80
2022/11/24 00:04:14;;;;;;;0.50;0.50;;;;;;;;;;5176377;27;20030;-80
2022/11/24 00:06:40;;;;;;;0.50;0.50;;;-0.20;99.90;;;;;;5157976;27;20046;-79
2022/11/24 00:09:06;;;;;;;0.37;0.37;;;0.00;99.90;;;;;;5157087;27;20121;-79
2022/11/24 00:11:34;;;;;;;0.40;0.40;;;0.00;99.90;;;;;;5157002;27;20046;-79
2022/11/24 00:14:00;;;;;;;0.40;0.40;;;-0.10;99.90;;;;;;5175966;27;20480;-80
2022/11/24 00:16:31;;;;;;;1.00;1.00;;;-0.10;99.90;;;;;;5176275;27;20037;-80
2022/11/24 00:18:59;;;;;;;0.60;0.60;;;-0.10;99.90;;;;;;5157477;27;20027;-79
2022/11/24 00:21:26;;;;;;;1.25;1.25;;;0.00;99.90;;;;;;5175900;27;20076;-79
2022/11/24 00:23:52;;;;;;;1.15;1.15;;;-0.10;99.90;;;;;;5176135;27;20073;-78
2022/11/24 00:26:23;;;;;;;0.63;0.63;;;0.70;99.90;;;;;;5157152;27;20086;-80
2022/11/24 00:28:50;;;;;;;0.40;0.40;;;-0.10;99.90;;;;;;5175888;27;20050;-79
2022/11/24 00:31:22;;;;;;;1.05;1.05;;;0.00;99.90;;;;;;5156989;27;20057;-79
2022/11/24 00:33:50;;;;;;;1.38;1.38;;;0.00;99.90;;;;;;5176082;27;20052;-79
2022/11/24 00:36:18;;;;;;;0.60;0.60;;;-0.40;99.90;;;;;;5175724;27;20050;-79
2022/11/24 00:38:45;;;;;;;1.65;1.60;;;0.00;99.90;;;;;;5175943;27;20481;-80
2022/11/24 00:41:11;;;;;;;1.05;1.05;;;0.00;99.90;;;;;;5176043;27;20091;-80
2022/11/24 00:43:37;;;;;;;0.52;0.52;;;-0.20;99.90;;;;;;5175704;27;20753;-79
2022/11/24 00:46:02;;;;;;;0.30;0.30;;;0.00;99.90;;;;;;5176235;27;20034;-82
2022/11/24 00:48:29;;;;;;;0.90;0.90;;;0.10;99.90;;;;;;5157188;27;20032;-79
2022/11/24 00:50:59;;;;;;;;;;;0.10;99.90;;;;;;5176414;27;20160;-78
2022/11/24 00:53:25;;;;;;;0.45;0.45;;;0.00;99.90;;;;;;5157306;27;19902;-79
2022/11/24 00:55:51;;;;;;;0.47;0.47;;;0.10;99.90;;;;;;5157468;27;20078;-79
2022/11/24 00:58:18;;;;;;;0.40;0.40;;;0.00;99.90;;;;;;5157351;27;20030;-80
2022/11/24 01:00:44;;;;;;;0.40;0.40;;;0.10;99.90;;;;;;5176405;27;20048;-79
2022/11/24 01:03:11;;;;;;;0.50;0.50;;;-0.10;99.90;;;;;;5175847;27;20046;-78
2022/11/24 01:05:37;;;;;;;1.02;1.02;;;0.10;99.90;;;;;;5156597;27;20388;-79
2022/11/24 01:08:02;;;;;;;0.43;0.43;;;0.10;99.90;;;;;;5175741;27;20528;-79
2022/11/24 01:10:28;;;;;;;0.53;0.53;;;-0.10;99.90;;;;;;5157095;27;20114;-78
2022/11/24 01:12:54;;;;;;;1.07;1.07;;;0.10;99.90;;;;;;5157491;27;20037;-80
2022/11/24 01:15:20;;;;;;;0.40;0.40;;;0.10;99.90;;;;;;5157187;27;20258;-80
2022/11/24 01:17:45;;;;;;;1.08;1.08;;;0.20;99.90;;;;;;5175839;27;20041;-79
2022/11/24 01:20:12;;;;;;;0.47;0.47;;;;;;;;;;5157297;27;20068;-79
2022/11/24 01:22:38;;;;;;;0.40;0.40;;;0.10;99.90;;;;;;5157248;27;20034;-78
2022/11/24 01:25:08;;;;;;;0.82;0.82;;;0.10;99.90;;;;;;5175666;27;20080;-79
2022/11/24 01:27:34;;;;;;;0.40;0.40;;;0.00;99.90;;;;;;5175346;27;20105;-80
2022/11/24 01:30:00;;;;;;;0.65;0.65;;;;;;;;;;5156793;27;20054;-80
2022/11/24 01:32:25;;;;;;;1.42;1.40;;;0.10;99.90;;;;;;5176282;27;20026;-80
2022/11/24 01:34:51;;;;;;;1.50;1.43;;;0.20;99.90;;;;;;5157061;27;20086;-78
2022/11/24 01:37:17;;;;;;;1.10;1.10;;;0.10;99.90;;;;;;5156426;27;20098;-80
2022/11/24 01:39:42;;;;;;;0.73;0.73;;;0.00;99.90;;;;;;5157352;27;20058;-79
2022/11/24 01:42:08;;;;;;;0.83;0.83;;;0.00;99.90;;;;;;5175314;27;20431;-79
2022/11/24 01:44:33;;;;;;;0.63;0.63;;;0.10;99.90;;;;;;5156618;27;20130;-79
2022/11/24 01:47:48;;;;;;;0.40;0.40;;;-0.40;99.90;;;;;;5175557;27;20041;-79
2022/11/24 01:50:15;;;;;;;0.40;0.40;;;0.60;99.90;;;;;;5090045;28;20048;-80
2022/11/24 01:52:45;;;;;;;0.95;0.95;;;0.00;99.90;;;;;;5140241;27;20037;-80
2022/11/24 01:55:17;;;;;;;1.08;1.08;;;0.10;99.90;;;;;;5175568;27;20034;-80
2022/11/24 01:57:59;;;;;;;2.67;1.83;;;0.10;99.90;;;;;;5175556;27;20030;-78
2022/11/24 02:00:25;;;;;;;0.38;0.38;;;0.00;99.90;;;;;;5175330;27;20053;-79
2022/11/24 02:02:51;;;;;;;0.50;0.50;;;0.30;99.90;;;;;;5175183;27;20385;-78
2022/11/24 02:05:28;;;;;;;1.27;1.27;;;0.10;99.90;;;;;;5174973;27;20038;-79
2022/11/24 02:07:58;;;;;;;0.80;0.80;;;0.10;99.90;;;;;;5175592;27;20403;-79
2022/11/24 02:10:23;;;;;;;0.85;0.85;;;0.60;99.90;;;;;;5156518;27;20100;-80
2022/11/24 02:12:52;;;;;;;0.40;0.40;;;0.00;99.90;;;;;;5175331;27;20042;-79
2022/11/24 02:15:18;;;;;;;0.93;0.93;;;0.00;99.90;;;;;;5175837;27;20504;-79
2022/11/24 02:17:44;;;;;;;;;;;0.00;99.90;;;;;;5176792;27;20034;-79
2022/11/24 02:20:11;;;;;;;0.50;0.50;;;0.10;99.90;;;;;;5159619;27;20270;-80
2022/11/24 02:23:03;;;;;;;0.40;0.40;;;0.10;99.90;;;;;;5178614;27;20034;-79
2022/11/24 02:25:51;;;;;;;0.30;0.30;;;0.00;99.90;;;;;;5151069;27;20037;-80
2022/11/24 02:28:21;;;;;;;0.50;0.50;;;0.10;99.90;;;;;;5159764;27;20026;-79
2022/11/24 02:30:47;;;;;;;0.45;0.45;;;0.10;99.90;;;;;;5179637;27;20529;-80
2022/11/24 02:33:13;;;;;;;1.67;1.58;;;0.30;99.90;;;;;;5178862;27;20037;-80
2022/11/24 02:35:39;;;;;;;1.08;1.08;;;0.10;99.90;;;;;;5159836;27;20034;-80
2022/11/24 02:38:08;;;;;;;0.43;0.43;;;0.10;99.90;;;;;;5178915;27;20125;-79
2022/11/24 02:40:34;;;;;;;0.47;0.47;;;0.10;99.90;;;;;;5178918;27;20421;-80
2022/11/24 02:43:08;;;;;;;1.52;1.42;;;0.10;99.90;;;;;;5160464;27;20071;-79
2022/11/24 02:45:34;;;;;;;0.55;0.55;;;0.10;99.90;;;;;;5179572;27;20027;-79
2022/11/24 02:47:59;;;;;;;0.93;0.93;;;0.20;99.90;;;;;;5159669;27;20346;-79
2022/11/24 02:50:25;;;;;;;0.87;0.87;;;0.10;99.90;;;;;;5178383;27;20381;-79
2022/11/24 02:52:51;;;;;;;2.27;2.17;;;0.20;99.90;;;;;;5178382;27;20034;-79
2022/11/24 02:55:16;;;;;;;0.77;0.77;;;0.90;99.90;;;;;;5160214;27;20671;-79
2022/11/24 02:57:42;;;;;;;0.57;0.57;;;0.20;99.90;;;;;;5159686;27;20035;-79
2022/11/24 03:00:08;;;;;;;0.40;0.40;;;0.20;99.90;;;;;;5178673;27;20080;-79
2022/11/24 03:02:34;;;;;;;0.45;0.45;;;-0.30;99.90;;;;;;5178663;27;20030;-80
2022/11/24 03:05:00;;;;;;;0.73;0.73;;;0.10;99.90;;;;;;5178130;27;20495;-80
2022/11/24 03:07:26;;;;;;;1.33;1.33;;;0.20;99.90;;;;;;5178208;27;20062;-80
2022/11/24 03:09:52;;;;;;;;;;;0.20;99.90;;;;;;5159787;27;20353;-79
2022/11/24 03:12:18;;;;;;;0.30;0.30;;;0.20;99.90;;;;;;5177942;27;19943;-80
2022/11/24 03:14:43;;;;;;;0.50;0.50;;;0.20;99.90;;;;;;5178574;27;20030;-78
2022/11/24 03:17:09;;;;;;;0.50;0.50;;;0.30;99.90;;;;;;5159655;27;20189;-80
2022/11/24 03:19:35;;;;;;;0.60;0.60;;;;;;;;;;5178031;27;20027;-79
2022/11/24 03:22:00;;;;;;;2.13;1.95;;;0.40;99.90;;;;;;5158961;27;20393;-80
2022/11/24 03:24:26;;;;;;;0.83;0.83;;;0.30;99.90;;;;;;5159414;27;20026;-79
2022/11/24 03:26:52;;;;;;;1.80;1.70;;;0.30;99.90;;;;;;5159797;27;20030;-80
2022/11/24 03:29:18;;;;;;;0.50;0.50;;;;;;;;;;5158390;27;20118;-79
2022/11/24 03:31:44;;;;;;;0.50;0.50;;;0.20;99.90;;;;;;5159294;27;20542;-80
2022/11/24 03:34:09;;;;;;;1.10;1.10;;;0.30;99.90;;;;;;5159209;27;20030;-80
2022/11/24 03:36:35;;;;;;;0.60;0.60;;;0.20;99.90;;;;;;5178024;27;20033;-80
2022/11/24 03:39:00;;;;;;;0.97;0.97;;;0.10;99.90;;;;;;5178447;27;20384;-80
2022/11/24 03:41:26;;;;;;;1.50;1.33;;;0.20;99.90;;;;;;5177235;27;20030;-78
2022/11/24 03:43:51;;;;;;;1.03;1.03;;;0.30;99.90;;;;;;5158474;27;20031;-79
2022/11/24 03:46:17;;;;;;;0.50;0.50;;;0.20;99.90;;;;;;5177440;27;20027;-80
2022/11/24 03:48:43;;;;;;;0.50;0.50;;;0.40;99.90;;;;;;5158909;27;20030;-78
2022/11/24 03:51:10;;;;;;;0.47;0.47;;;0.30;99.90;;;;;;5177606;27;20493;-80
2022/11/24 03:53:35;;;;;;;;;;;0.30;99.90;;;;;;5159762;27;20055;-79
2022/11/24 03:56:01;;;;;;;0.40;0.40;;;0.30;99.90;;;;;;5178664;27;19990;-80
2022/11/24 03:58:27;;;;;;;0.40;0.40;;;0.30;99.90;;;;;;5158447;27;20103;-81
2022/11/24 04:00:54;;;;;;;0.95;0.95;;;0.30;99.90;;;;;;5159336;27;20030;-80
2022/11/24 04:03:20;;;;;;;1.58;1.48;;;0.30;99.90;;;;;;5177647;27;20032;-81
2022/11/24 04:05:47;;;;;;;1.63;1.58;;;0.30;99.90;;;;;;5158627;27;20030;-79
2022/11/24 04:08:13;;;;;;;0.73;0.73;;;0.30;99.90;;;;;;5158417;27;20030;-80
2022/11/24 04:10:39;;;;;;;0.57;0.57;;;1.00;99.90;;;;;;5158495;27;20054;-80
2022/11/24 04:13:11;;;;;;;0.60;0.60;;;0.90;99.90;;;;;;5158246;27;20034;-79
2022/11/24 04:15:39;;;;;;;0.50;0.50;;;0.30;99.90;;;;;;5176338;27;20046;-80
2022/11/24 04:18:05;;;;;;;0.40;0.40;;;0.40;99.90;;;;;;5158361;27;20118;-79
2022/11/24 04:20:31;;;;;;;0.82;0.82;;;0.30;99.90;;;;;;5176959;27;20030;-79
2022/11/24 04:22:57;;;;;;;0.83;0.83;;;0.30;99.90;;;;;;5176967;27;20037;-79
2022/11/24 04:25:22;;;;;;;1.03;1.03;;;0.40;99.90;;;;;;5177445;27;20118;-80
2022/11/24 04:27:52;;;;;;;0.43;0.43;;;0.40;99.90;;;;;;5176601;27;20034;-78
2022/11/24 04:30:19;;;;;;;0.80;0.80;;;0.40;99.90;;;;;;5157547;27;20177;-79
2022/11/24 04:32:44;;;;;;;;;;;0.40;99.90;;;;;;5177042;27;20049;-80
2022/11/24 04:35:10;;;;;;;0.30;0.30;;;0.40;99.90;;;;;;5176122;27;19915;-80
2022/11/24 04:37:36;;;;;;;0.47;0.47;;;0.40;99.90;;;;;;5157348;27;20062;-80
2022/11/24 04:40:03;;;;;;;1.38;1.35;;;0.40;99.90;;;;;;5157767;27;20034;-80
2022/11/24 04:42:29;;;;;;;0.50;0.50;;;0.40;99.90;;;;;;5157598;27;20062;-79
2022/11/24 04:44:55;;;;;;;0.40;0.40;;;0.40;99.90;;;;;;5176550;27;20437;-81
2022/11/24 04:47:22;;;;;;;0.60;0.60;;;0.30;99.90;;;;;;5157217;27;20537;-80
2022/11/24 04:49:49;;;;;;;0.40;0.40;;;0.40;99.90;;;;;;5157487;27;20038;-80
2022/11/24 04:52:18;;;;;;;;;;;0.40;99.90;;;;;;5176222;27;20031;-80
2022/11/24 04:54:45;;;;;;;0.75;0.75;;;0.30;99.90;;;;;;5175558;27;19949;-80
2022/11/24 04:57:22;;;;;;;0.73;0.73;;;0.40;99.90;;;;;;5175876;27;20045;-80
2022/11/24 04:59:48;;;;;;;;;;;0.40;99.90;;;;;;5157261;27;20374;-81
2022/11/24 05:02:14;;;;;;;0.50;0.50;;;0.40;99.90;;;;;;5175600;27;20001;-81
2022/11/24 05:04:39;;;;;;;0.60;0.60;;;0.40;99.90;;;;;;5156943;27;20129;-80
2022/11/24 05:07:06;;;;;;;0.40;0.40;;;0.50;99.90;;;;;;5156829;27;20438;-80
2022/11/24 05:09:32;;;;;;;;;;;0.40;99.90;;;;;;5175797;27;20123;-79
2022/11/24 05:11:57;;;;;;;1.20;1.20;;;0.50;99.90;;;;;;5175654;27;19995;-79
2022/11/24 05:14:23;;;;;;;0.40;0.40;;;0.50;99.90;;;;;;5175593;27;20384;-80
2022/11/24 05:16:50;;;;;;;0.70;0.70;;;0.50;99.90;;;;;;5156790;27;20128;-79
2022/11/24 05:19:16;;;;;;;;;;;0.50;99.90;;;;;;5157071;27;20033;-80
2022/11/24 05:21:42;;;;;;;0.57;0.57;;;0.60;99.90;;;;;;5156811;27;19913;-79
2022/11/24 05:24:09;;;;;;;0.40;0.40;;;0.50;99.90;;;;;;5156641;27;20385;-79
2022/11/24 05:26:34;;;;;;;0.52;0.52;;;0.50;99.90;;;;;;5176226;27;20042;-80
2022/11/24 05:29:00;;;;;;;1.27;1.27;;;0.50;99.90;;;;;;5175746;27;20030;-80
2022/11/24 05:31:25;;;;;;;0.40;0.40;;;0.50;99.90;;;;;;5175513;27;20030;-80
2022/11/24 05:33:51;;;;;;;0.97;0.97;;;0.60;99.90;;;;;;5175114;27;20026;-81
2022/11/24 05:39:01;;;;;;;1.65;1.55;;;0.60;99.90;;;;;;5175887;27;20049;-80
2022/11/24 05:41:27;;;;;;;0.40;0.40;;;;;;;;;;5175376;27;20042;-80
2022/11/24 05:43:52;;;;;;;0.95;0.95;;;0.70;99.90;;;;;;5175121;27;20030;-80
2022/11/24 05:46:18;;;;;;;0.47;0.47;;;0.60;99.90;;;;;;5175286;27;20039;-79
2022/11/24 05:48:43;;;;;;;1.07;1.07;;;0.60;99.90;;;;;;5175044;27;20109;-80
2022/11/24 05:51:09;;;;;;;1.23;1.23;;;0.50;99.90;;;;;;5174956;27;20045;-79
2022/11/24 05:53:35;;;;;;;1.00;1.00;;;2.60;99.90;;;;;;5178352;27;20083;-79
2022/11/24 05:56:04;;;;;;;2.13;2.03;;;0.70;99.90;;;;;;5160352;27;20088;-78
2022/11/24 05:58:30;;;;;;;0.57;0.57;;;0.70;99.90;;;;;;5160628;27;20030;-80
2022/11/24 06:00:55;;;;;;;0.40;0.40;;;0.70;99.90;;;;;;5161030;27;20079;-80
2022/11/24 06:03:21;;;;;;;1.17;1.17;;;0.70;99.90;;;;;;5179027;27;20812;-79
2022/11/24 06:05:47;;;;;;;0.40;0.40;;;0.70;99.90;;;;;;5179216;27;20434;-79
2022/11/24 06:08:13;;;;;;;0.83;0.83;;;0.70;99.90;;;;;;5159866;27;20033;-79
2022/11/24 06:10:38;;;;;;;0.77;0.77;;;0.70;99.90;;;;;;5178489;27;20493;-80
2022/11/24 06:13:07;;;;;;;0.80;0.80;;;0.70;99.90;;;;;;5178894;27;20030;-79
2022/11/24 06:15:35;;;;;;;0.70;0.70;;;0.70;99.90;;;;;;5178214;27;20388;-80
2022/11/24 06:18:01;;;;;;;0.75;0.75;;;0.80;99.90;;;;;;5178144;27;20033;-81
2022/11/24 06:20:26;;;;;;;0.80;0.80;;;0.80;99.90;;;;;;5177869;27;20423;-80
2022/11/24 06:22:52;;;;;;;0.40;0.40;;;0.80;99.90;;;;;;5178118;27;20061;-79
2022/11/24 06:25:17;;;;;;;0.83;0.83;;;0.80;99.90;;;;;;5159384;27;20418;-79
2022/11/24 06:27:44;;;;;;;0.40;0.40;;;0.80;99.90;;;;;;5159063;27;20041;-80
2022/11/24 06:30:10;;;;;;;1.73;1.63;;;0.80;99.90;;;;;;5158763;27;20034;-80
2022/11/24 06:32:36;;;;;;;0.30;0.30;;;0.80;99.90;;;;;;5177678;27;20038;-79
2022/11/24 06:35:02;;;;;;;0.30;0.30;;;0.80;99.90;;;;;;5177819;27;20033;-80
2022/11/24 06:37:27;;;;;;;2.37;1.90;;;0.80;99.90;;;;;;5158937;27;20030;-80
2022/11/24 06:39:55;;;;;;;0.60;0.60;;;0.80;99.90;;;;;;5159428;27;20054;-80
2022/11/24 06:42:21;;;;;;;1.23;1.23;;;0.80;99.90;;;;;;5158419;27;20062;-76
2022/11/24 06:44:47;;;;;;;0.40;0.40;;;0.70;99.90;;;;;;5177268;27;20110;-76
2022/11/24 06:47:13;;;;;;;0.40;0.40;;;0.80;99.90;;;;;;5158587;27;20491;-75
2022/11/24 06:49:39;;;;;;;0.40;0.40;;;0.80;99.90;;;;;;5158245;27;20030;-75
2022/11/24 06:52:04;;;;;;;0.40;0.40;;;0.80;99.90;;;;;;5177103;27;20465;-75
2022/11/24 06:54:30;;;;;;;0.50;0.50;;;0.90;99.90;;;;;;5177006;27;20095;-75
2022/11/24 06:56:57;;;;;;;0.40;0.40;;;0.90;99.90;;;;;;5177570;27;20041;-75
2022/11/24 06:59:23;;;;;;;1.35;1.25;;;;;;;;;;5176917;27;20086;-76
2022/11/24 07:01:49;;;;;;;0.60;0.60;;;0.90;99.90;;;;;;5157919;27;20041;-75
2022/11/24 07:04:14;;;;;;;0.40;0.40;;;0.90;99.90;;;;;;5175561;27;20018;-75
2022/11/24 07:06:41;;;;;;;0.40;0.40;;;0.90;99.90;;;;;;5158216;27;20496;-75
2022/11/24 07:09:08;;;;;;;0.40;0.40;;;1.00;99.90;;;;;;5157904;27;20026;-76
2022/11/24 07:11:34;;;;;;;0.35;0.35;;;1.00;99.90;;;;;;5158124;27;20094;-76
2022/11/24 07:14:00;;;;;;;0.50;0.50;;;1.00;99.90;;;;;;5158229;27;20030;-75
2022/11/24 07:16:26;;;;;;;0.40;0.40;;;1.00;99.90;;;;;;5176724;27;20192;-75
2022/11/24 07:18:53;;;;;;;0.60;0.60;;;1.00;99.90;;;;;;5176870;27;20105;-75
2022/11/24 07:21:20;;;;;;;0.43;0.43;;;1.00;99.90;;;;;;5176699;27;20038;-74
2022/11/24 07:23:54;;;;;;;0.40;0.40;;;1.00;99.90;;;;;;5176700;27;20371;-75
2022/11/24 07:26:21;;;;;;;0.52;0.52;;;1.00;99.90;;;;;;5157498;27;20512;-74
2022/11/24 07:28:47;;;;;;;0.63;0.63;;;1.00;99.90;;;;;;5176383;27;20029;-76
2022/11/24 07:31:17;;;;;;;0.40;0.40;;;1.00;99.90;;;;;;5176389;27;20547;-75
2022/11/24 07:33:47;;;;;;;0.47;0.47;;;1.10;99.90;;;;;;5176860;27;20113;-76
2022/11/24 07:36:13;;;;;;;1.00;1.00;;;1.00;99.90;;;;;;5176388;27;20056;-76
2022/11/24 07:38:38;;;;;;;2.33;1.97;;;1.00;99.90;;;;;;5176096;27;20499;-74
2022/11/24 07:41:08;;;;;;;0.50;0.50;;;1.10;99.90;;;;;;5157134;27;20042;-75
2022/11/24 07:43:35;;;;;;;0.43;0.43;;;1.10;99.90;;;;;;5157010;27;20026;-75
2022/11/24 07:46:01;;;;;;;0.40;0.40;;;1.10;99.90;;;;;;5175543;27;20085;-79
2022/11/24 07:48:27;;;;;;;0.95;0.95;;;;;;;;;;5156898;27;20086;-71
2022/11/24 07:50:53;;;;;;;0.60;0.60;;;1.20;99.90;;;;;;5175719;27;20112;-70
2022/11/24 07:53:19;;;;;;;0.97;0.97;;;;;;;;;;5175452;27;20030;-68
2022/11/24 07:55:56;;;;;;;0.50;0.50;;;1.40;99.90;;;;;;5175407;27;20390;-70
2022/11/24 07:58:22;;;;;;;0.30;0.30;;;1.50;99.90;;;;;;5175288;27;20028;-69
2022/11/24 08:00:48;;;;;;;0.83;0.83;;;;;;;;;;5175345;27;20030;-69
2022/11/24 08:03:14;;;;;;;1.80;1.73;;;1.50;99.90;;;;;;5175176;27;20037;-69
2022/11/24 08:05:40;;;;;;;0.65;0.65;;;1.50;99.90;;;;;;5175077;27;20027;-69
2022/11/24 08:08:05;;;;;;;0.90;0.90;;;1.50;99.90;;;;;;5174818;27;20093;-68
2022/11/24 08:10:31;;;;;;;1.60;1.50;;;1.40;99.90;;;;;;5156117;27;20093;-69
2022/11/24 08:13:00;;;;;;;0.40;0.40;;;1.40;99.90;;;;;;5174960;27;20384;-70
2022/11/24 08:15:26;;;;;;;3.33;2.90;;;1.40;99.90;;;;;;5174495;27;20035;-69
2022/11/24 08:17:52;;;;;;;1.50;1.40;;;1.40;99.90;;;;;;5174897;27;20473;-70
2022/11/24 08:20:17;;;;;;;1.17;1.07;;;1.40;99.90;;;;;;5174988;27;20065;-71
2022/11/24 08:22:43;;;;;;;0.57;0.57;;;1.50;99.90;;;;;;5174955;27;20034;-69
2022/11/24 08:25:12;;;;;;;1.30;1.23;;;1.50;99.90;;;;;;5174877;27;20037;-69
2022/11/24 08:27:39;;;;;;;1.08;1.02;;;1.50;99.90;;;;;;5174476;27;20038;-70
2022/11/24 08:30:05;;;;;;;0.52;0.52;;;1.50;99.90;;;;;;5155916;27;20074;-69
2022/11/24 08:32:31;;;;;;;0.43;0.43;;;;;;;;;;5174728;27;20026;-69
2022/11/24 08:34:56;;;;;;;0.50;0.50;;;1.40;99.90;;;;;;5174356;27;20529;-68
2022/11/24 08:37:24;;;;;;;0.50;0.50;;;1.50;99.90;;;;;;5173340;27;20049;-69
2022/11/24 08:39:51;;;;;;;0.40;0.40;;;1.50;99.90;;;;;;5173074;27;20109;-68
2022/11/24 08:42:16;;;;;;;1.45;1.40;;;1.50;99.90;;;;;;5173647;27;20076;-68
2022/11/24 08:44:42;;;;;;;0.50;0.50;;;1.40;99.90;;;;;;5173330;27;20050;-68
2022/11/24 08:47:07;;;;;;;0.40;0.40;;;1.50;99.90;;;;;;5174017;27;20022;-67
2022/11/24 08:49:33;;;;;;;1.47;1.37;;;1.60;99.90;;;;;;5174238;27;20026;-67
2022/11/24 08:51:59;;;;;;;0.53;0.53;;;1.60;99.90;;;;;;5168760;27;20105;-68
2022/11/24 08:54:26;;;;;;;1.13;1.13;;;1.60;99.90;;;;;;5134399;27;20405;-68
2022/11/24 08:56:52;;;;;;;0.85;0.85;;;1.70;99.90;;;;;;5153078;27;20038;-69
2022/11/24 08:59:18;;;;;;;0.73;0.73;;;1.70;99.90;;;;;;5133984;27;20031;-68
2022/11/24 09:01:43;;;;;;;1.03;1.03;;;1.70;99.90;;;;;;5152125;27;20215;-69
2022/11/24 09:04:09;;;;;;;0.97;0.97;;;1.60;99.90;;;;;;5152361;27;20536;-67
2022/11/24 09:06:34;;;;;;;2.53;2.33;;;1.60;99.90;;;;;;5151682;27;20458;-66
2022/11/24 09:09:00;;;;;;;0.80;0.80;;;1.60;99.90;;;;;;5152156;27;20031;-67
2022/11/24 09:11:26;;;;;;;1.53;1.47;;;1.60;99.90;;;;;;5152104;27;20516;-67
2022/11/24 09:13:53;;;;;;;0.95;0.95;;;1.50;99.90;;;;;;5152081;27;20043;-70
2022/11/24 09:16:22;;;;;;;0.40;0.40;;;1.60;99.90;;;;;;5152694;27;20090;-67
2022/11/24 09:18:53;;;;;;;1.73;1.65;;;1.70;99.90;;;;;;5152459;27;20034;-68
2022/11/24 09:21:20;;;;;;;2.33;2.20;;;1.70;99.90;;;;;;5166453;27;20026;-68
2022/11/24 09:23:48;;;;;;;1.98;1.88;;;1.70;99.90;;;;;;5169861;27;20063;-64
2022/11/24 09:26:16;;;;;;;0.70;0.70;;;1.80;99.90;;;;;;5141581;27;20043;-67
2022/11/24 09:28:42;;;;;;;0.50;0.50;;;1.80;99.90;;;;;;5155611;27;20035;-70
2022/11/24 09:31:10;;;;;;;1.13;1.13;;;1.90;99.90;;;;;;5163102;27;20128;-70
2022/11/24 09:33:37;;;;;;;0.70;0.70;;;1.80;99.90;;;;;;5167413;27;20065;-69
2022/11/24 09:36:04;;;;;;;2.05;1.95;;;1.80;99.90;;;;;;5169125;27;20026;-69
2022/11/24 09:38:30;;;;;;;0.40;0.40;;;1.70;99.90;;;;;;5167297;27;20158;-69
2022/11/24 09:41:04;;;;;;;1.63;1.52;;;1.70;99.90;;;;;;5165107;27;20418;-70
2022/11/24 09:43:45;;;;;;;2.30;2.20;;;1.60;99.90;;;;;;5169550;27;20117;-70
2022/11/24 09:46:26;;;;;;;0.65;0.65;;;1.70;99.90;;;;;;5170453;27;20465;-69
2022/11/24 09:48:55;;;;;;;1.40;1.35;;;1.70;99.90;;;;;;5172017;27;20109;-69
2022/11/24 09:51:25;;;;;;;52.95;48.60;;;1.70;99.90;;;;;;5163762;27;20030;-68
2022/11/24 09:53:55;;;;;;;7.43;6.75;;;1.70;99.90;;;;;;5143517;27;20090;-68
2022/11/24 09:56:31;;;;;;;3.50;3.25;;;1.80;99.90;;;;;;5166871;27;20046;-68
2022/11/24 09:59:01;;;;;;;2.00;1.50;;;1.90;99.90;;;;;;5153637;27;20047;-67
2022/11/24 10:01:38;;;;;;;7.35;6.80;;;1.80;99.90;;;;;;5171066;27;20045;-72
2022/11/24 10:04:17;;;;;;;2.47;2.37;;;2.00;99.90;;;;;;5143825;27;20035;-67
2022/11/24 10:07:00;;;;;;;7.97;3.17;;;2.10;99.90;;;;;;5157015;27;20122;-67
2022/11/24 10:09:51;;;;;;;1.27;1.27;;;2.10;99.90;;;;;;5163254;27;20129;-70
2022/11/24 10:12:41;;;;;;;0.55;0.55;;;2.00;99.90;;;;;;5168886;27;20561;-68
2022/11/24 10:15:26;;;;;;;0.93;0.93;;;1.80;99.90;;;;;;5167883;27;20030;-67
2022/11/24 10:18:09;;;;;;;0.93;0.93;;;1.70;99.90;;;;;;5158765;27;20042;-68
2022/11/24 10:20:56;;;;;;;1.42;1.33;;;1.40;99.90;;;;;;5142047;27;20034;-70
2022/11/24 10:23:21;;;;;;;0.73;0.73;;;2.30;99.90;;;;;;5139451;27;20330;-68
2022/11/24 10:25:53;;;;;;;0.50;0.50;;;1.60;99.90;;;;;;5163546;27;20084;-68
2022/11/24 10:28:19;;;;;;;0.57;0.57;;;1.60;99.90;;;;;;5164928;27;20039;-69
2022/11/24 10:30:44;;;;;;;1.40;1.37;;;1.60;99.90;;;;;;5164361;27;20042;-69
2022/11/24 10:33:18;;;;;;;3.93;2.67;;;1.60;99.90;;;;;;5161238;27;20037;-69
2022/11/24 10:35:59;;;;;;;3.08;2.78;;;1.60;99.90;;;;;;5162509;27;20041;-66
2022/11/24 10:38:36;;;;;;;0.98;0.98;;;1.50;99.90;;;;;;5157619;27;20141;-66
2022/11/24 10:41:11;;;;;;;1.40;1.35;;;1.60;99.90;;;;;;5162555;27;20431;-68
2022/11/24 10:43:39;;;;;;;0.47;0.47;;;1.50;99.90;;;;;;5171434;27;20156;-68
2022/11/24 10:46:22;;;;;;;0.70;0.70;;;1.60;99.90;;;;;;5163768;27;21813;-68
2022/11/24 10:48:57;;;;;;;0.60;0.60;;;1.70;99.90;;;;;;5129386;27;20058;-68
2022/11/24 10:51:23;;;;;;;0.95;0.95;;;1.70;99.90;;;;;;5162725;27;20121;-68
2022/11/24 10:53:56;;;;;;;0.53;0.53;;;1.80;99.90;;;;;;5164217;27;20106;-68
2022/11/24 10:56:21;;;;;;;0.68;0.68;;;1.70;99.90;;;;;;5145704;27;20038;-69
2022/11/24 10:58:47;;;;;;;0.40;0.40;;;1.70;99.90;;;;;;5165990;27;20041;-68
2022/11/24 11:01:13;;;;;;;1.10;1.10;;;1.70;99.90;;;;;;5162851;27;20053;-63
2022/11/24 11:03:56;;;;;;;0.43;0.43;;;1.80;99.90;;;;;;5173271;27;20442;-65
2022/11/24 11:06:23;;;;;;;1.30;1.23;;;2.10;99.90;;;;;;5161116;27;20038;-65
2022/11/24 11:09:09;;;;;;;1.83;1.70;;;2.20;99.90;;;;;;5164010;27;20098;-64
2022/11/24 11:11:38;;;;;;;0.40;0.40;;;2.10;99.90;;;;;;5157112;27;20046;-65
2022/11/24 11:14:09;;;;;;;1.38;1.35;;;2.30;99.90;;;;;;5162448;27;20046;-65
2022/11/24 11:16:51;;;;;;;0.40;0.40;;;2.30;99.90;;;;;;5168853;27;20037;-66
2022/11/24 11:19:48;;;;;;;0.40;0.40;;;2.20;99.90;;;;;;5158659;27;20077;-67
2022/11/24 11:22:19;;;;;;;0.70;0.70;;;2.00;99.90;;;;;;5150340;27;20042;-66
2022/11/24 11:24:47;;;;;;;0.85;0.85;;;1.90;99.90;;;;;;5151338;27;20117;-65
2022/11/24 11:27:21;;;;;;;0.55;0.55;;;2.00;99.90;;;;;;5166019;27;20369;-65
2022/11/24 11:29:47;;;;;;;2.88;2.67;;;1.80;99.90;;;;;;5147889;27;20083;-66
2022/11/24 11:32:20;;;;;;;;;;;1.80;99.90;;;;;;5148275;27;20038;-65
2022/11/24 11:34:48;;;;;;;0.55;0.55;;;1.80;99.90;;;;;;5152641;27;20041;-63
2022/11/24 11:37:14;;;;;;;0.70;0.70;;;1.40;99.90;;;;;;5153112;27;20038;-62
2022/11/24 11:39:41;;;;;;;;;;;1.80;99.90;;;;;;5165840;27;20431;-68
2022/11/24 11:42:33;;;;;;;0.70;0.70;;;1.90;99.90;;;;;;5152771;27;19972;-66
2022/11/24 11:45:10;;;;;;;1.05;1.02;;;1.90;99.90;;;;;;5155778;27;20122;-67
2022/11/24 11:48:31;;;;;;;0.40;0.40;;;1.90;99.90;;;;;;5171545;27;20035;-66
2022/11/24 11:51:09;;;;;;;0.38;0.38;;;1.90;99.90;;;;;;5064427;28;20036;-68
2022/11/24 11:54:07;;;;;;;0.40;0.40;;;1.90;99.90;;;;;;5160078;27;20078;-66
2022/11/24 11:56:43;;;;;;;0.98;0.98;;;1.80;99.90;;;;;;5151539;27;20133;-66
2022/11/24 11:59:12;;;;;;;0.50;0.50;;;1.70;99.90;;;;;;5164233;27;20050;-67
2022/11/24 12:02:12;;;;;;;0.30;0.30;;;1.70;99.90;;;;;;5170702;27;20026;-65
2022/11/24 12:04:58;;;;;;;0.73;0.73;;;2.00;99.90;;;;;;5145181;27;20070;-69
2022/11/24 12:07:54;;;;;;;1.25;1.23;;;2.30;99.90;;;;;;5167526;27;20427;-67
2022/11/24 12:10:23;;;;;;;0.73;0.73;;;2.00;99.90;;;;;;5162014;27;20051;-66
2022/11/24 12:13:10;;;;;;;0.30;0.30;;;2.00;99.90;;;;;;5166690;27;20145;-65
2022/11/24 12:15:52;;;;;;;2.50;1.58;;;1.80;99.90;;;;;;5169223;27;20400;-69
2022/11/24 12:18:45;;;;;;;0.40;0.40;;;1.90;99.90;;;;;;5169563;27;20565;-65
2022/11/24 12:21:42;;;;;;;0.77;0.77;;;1.60;99.90;;;;;;5170477;27;20110;-69
2022/11/24 12:24:10;;;;;;;2.20;2.10;;;1.80;99.90;;;;;;5166236;27;20035;-66
2022/11/24 12:26:51;;;;;;;1.25;1.25;;;1.80;99.90;;;;;;5168495;27;20075;-66
2022/11/24 12:29:35;;;;;;;1.90;1.80;;;1.80;99.90;;;;;;5155000;27;20035;-65
2022/11/24 12:32:06;;;;;;;0.60;0.60;;;1.40;99.90;;;;;;5160300;27;20051;-68
2022/11/24 12:34:38;;;;;;;0.65;0.65;;;1.50;99.90;;;;;;5158276;27;20114;-69
